sensor_id;sensor_type;location;lat;lon;timestamp;P1;durP1;ratioP1;P2;durP2;ratioP2
72319;SDS011;60269;52.502;16.732;2022-10-26T00:00:27;19.67;;;7.85;;
72319;SDS011;60269;52.502;16.732;2022-10-26T00:04:19;18.87;;;7.70;;
72319;SDS011;60269;52.502;16.732;2022-10-26T00:07:51;19.37;;;7.67;;
72319;SDS011;60269;52.502;16.732;2022-10-26T00:11:23;17.77;;;7.15;;
72319;SDS011;60269;52.502;16.732;2022-10-26T00:14:54;21.88;;;7.95;;
72319;SDS011;60269;52.502;16.732;2022-10-26T00:18:26;21.67;;;8.47;;
72319;SDS011;60269;52.502;16.732;2022-10-26T00:21:58;21.43;;;8.77;;
72319;SDS011;60269;52.502;16.732;2022-10-26T00:25:30;25.38;;;9.30;;
72319;SDS011;60269;52.502;16.732;2022-10-26T00:29:02;20.60;;;8.40;;
72319;SDS011;60269;52.502;16.732;2022-10-26T00:32:34;27.03;;;8.23;;
72319;SDS011;60269;52.502;16.732;2022-10-26T00:36:06;28.77;;;9.20;;
72319;SDS011;60269;52.502;16.732;2022-10-26T00:39:40;20.67;;;8.98;;
72319;SDS011;60269;52.502;16.732;2022-10-26T00:43:31;25.90;;;8.45;;
72319;SDS011;60269;52.502;16.732;2022-10-26T00:47:07;20.23;;;7.63;;
72319;SDS011;60269;52.502;16.732;2022-10-26T00:50:41;16.52;;;7.60;;
72319;SDS011;60269;52.502;16.732;2022-10-26T00:54:16;20.35;;;8.60;;
72319;SDS011;60269;52.502;16.732;2022-10-26T00:57:49;20.17;;;8.03;;
72319;SDS011;60269;52.502;16.732;2022-10-26T01:01:23;22.53;;;7.50;;
72319;SDS011;60269;52.502;16.732;2022-10-26T01:04:55;22.63;;;7.38;;
72319;SDS011;60269;52.502;16.732;2022-10-26T01:08:27;20.85;;;8.20;;
72319;SDS011;60269;52.502;16.732;2022-10-26T01:11:59;18.77;;;7.23;;
72319;SDS011;60269;52.502;16.732;2022-10-26T01:31:07;19.38;;;7.00;;
72319;SDS011;60269;52.502;16.732;2022-10-26T01:35:07;19.98;;;7.32;;
72319;SDS011;60269;52.502;16.732;2022-10-26T01:38:46;21.05;;;7.65;;
72319;SDS011;60269;52.502;16.732;2022-10-26T01:42:28;20.23;;;7.93;;
72319;SDS011;60269;52.502;16.732;2022-10-26T01:46:02;17.23;;;6.90;;
72319;SDS011;60269;52.502;16.732;2022-10-26T01:49:40;19.63;;;7.90;;
72319;SDS011;60269;52.502;16.732;2022-10-26T01:53:16;23.20;;;8.10;;
72319;SDS011;60269;52.502;16.732;2022-10-26T01:56:53;20.05;;;6.90;;
72319;SDS011;60269;52.502;16.732;2022-10-26T02:00:29;22.30;;;7.45;;
72319;SDS011;60269;52.502;16.732;2022-10-26T02:04:15;20.80;;;6.65;;
72319;SDS011;60269;52.502;16.732;2022-10-26T02:07:59;19.93;;;7.23;;
72319;SDS011;60269;52.502;16.732;2022-10-26T02:11:37;21.70;;;7.95;;
72319;SDS011;60269;52.502;16.732;2022-10-26T02:19:05;23.37;;;8.07;;
72319;SDS011;60269;52.502;16.732;2022-10-26T02:22:45;19.80;;;7.67;;
72319;SDS011;60269;52.502;16.732;2022-10-26T02:26:20;22.77;;;7.80;;
72319;SDS011;60269;52.502;16.732;2022-10-26T02:29:55;24.52;;;8.30;;
72319;SDS011;60269;52.502;16.732;2022-10-26T02:33:29;26.60;;;8.73;;
72319;SDS011;60269;52.502;16.732;2022-10-26T02:37:04;23.55;;;8.63;;
72319;SDS011;60269;52.502;16.732;2022-10-26T02:40:38;19.48;;;8.82;;
72319;SDS011;60269;52.502;16.732;2022-10-26T02:44:15;28.80;;;7.32;;
72319;SDS011;60269;52.502;16.732;2022-10-26T02:47:53;33.87;;;6.70;;
72319;SDS011;60269;52.502;16.732;2022-10-26T02:51:31;22.83;;;6.97;;
72319;SDS011;60269;52.502;16.732;2022-10-26T02:55:22;18.85;;;7.05;;
72319;SDS011;60269;52.502;16.732;2022-10-26T02:58:58;20.07;;;7.07;;
72319;SDS011;60269;52.502;16.732;2022-10-26T03:02:34;21.73;;;7.23;;
72319;SDS011;60269;52.502;16.732;2022-10-26T03:06:07;18.20;;;6.97;;
72319;SDS011;60269;52.502;16.732;2022-10-26T03:09:39;20.35;;;7.97;;
72319;SDS011;60269;52.502;16.732;2022-10-26T03:13:11;18.80;;;7.40;;
72319;SDS011;60269;52.502;16.732;2022-10-26T03:16:44;20.02;;;8.32;;
72319;SDS011;60269;52.502;16.732;2022-10-26T03:20:16;20.27;;;7.43;;
72319;SDS011;60269;52.502;16.732;2022-10-26T03:23:48;20.85;;;7.60;;
72319;SDS011;60269;52.502;16.732;2022-10-26T03:27:21;21.63;;;8.43;;
72319;SDS011;60269;52.502;16.732;2022-10-26T03:30:53;19.40;;;8.20;;
72319;SDS011;60269;52.502;16.732;2022-10-26T03:34:25;23.90;;;7.95;;
72319;SDS011;60269;52.502;16.732;2022-10-26T03:37:56;23.93;;;9.67;;
72319;SDS011;60269;52.502;16.732;2022-10-26T03:41:29;23.10;;;8.23;;
72319;SDS011;60269;52.502;16.732;2022-10-26T03:45:00;25.33;;;9.55;;
72319;SDS011;60269;52.502;16.732;2022-10-26T03:48:32;22.52;;;8.52;;
72319;SDS011;60269;52.502;16.732;2022-10-26T03:52:04;24.97;;;10.27;;
72319;SDS011;60269;52.502;16.732;2022-10-26T03:55:36;25.43;;;10.47;;
72319;SDS011;60269;52.502;16.732;2022-10-26T03:59:08;31.25;;;9.93;;
72319;SDS011;60269;52.502;16.732;2022-10-26T04:02:43;49.95;;;10.35;;
72319;SDS011;60269;52.502;16.732;2022-10-26T04:06:19;45.43;;;9.53;;
72319;SDS011;60269;52.502;16.732;2022-10-26T04:09:51;32.90;;;7.90;;
72319;SDS011;60269;52.502;16.732;2022-10-26T04:13:22;35.55;;;8.50;;
72319;SDS011;60269;52.502;16.732;2022-10-26T04:16:54;40.92;;;8.52;;
72319;SDS011;60269;52.502;16.732;2022-10-26T04:20:26;36.23;;;7.80;;
72319;SDS011;60269;52.502;16.732;2022-10-26T04:23:59;32.33;;;7.32;;
72319;SDS011;60269;52.502;16.732;2022-10-26T04:27:31;43.50;;;8.77;;
72319;SDS011;60269;52.502;16.732;2022-10-26T04:31:03;20.23;;;6.97;;
72319;SDS011;60269;52.502;16.732;2022-10-26T04:34:35;20.93;;;6.67;;
72319;SDS011;60269;52.502;16.732;2022-10-26T04:38:08;28.77;;;8.57;;
72319;SDS011;60269;52.502;16.732;2022-10-26T04:41:40;44.95;;;9.00;;
72319;SDS011;60269;52.502;16.732;2022-10-26T04:45:13;28.33;;;8.63;;
72319;SDS011;60269;52.502;16.732;2022-10-26T04:48:49;20.33;;;8.77;;
72319;SDS011;60269;52.502;16.732;2022-10-26T04:52:20;17.05;;;6.57;;
72319;SDS011;60269;52.502;16.732;2022-10-26T04:55:58;19.98;;;6.70;;
72319;SDS011;60269;52.502;16.732;2022-10-26T04:59:31;18.07;;;7.30;;
72319;SDS011;60269;52.502;16.732;2022-10-26T05:03:04;24.85;;;6.88;;
72319;SDS011;60269;52.502;16.732;2022-10-26T05:06:37;14.68;;;6.22;;
72319;SDS011;60269;52.502;16.732;2022-10-26T05:10:09;14.73;;;5.72;;
72319;SDS011;60269;52.502;16.732;2022-10-26T05:13:42;12.47;;;4.63;;
72319;SDS011;60269;52.502;16.732;2022-10-26T05:17:14;17.88;;;6.35;;
72319;SDS011;60269;52.502;16.732;2022-10-26T05:20:46;18.33;;;6.22;;
72319;SDS011;60269;52.502;16.732;2022-10-26T05:24:20;40.13;;;8.87;;
72319;SDS011;60269;52.502;16.732;2022-10-26T05:27:56;64.63;;;9.00;;
72319;SDS011;60269;52.502;16.732;2022-10-26T05:31:31;48.00;;;8.55;;
72319;SDS011;60269;52.502;16.732;2022-10-26T05:35:03;50.90;;;8.93;;
72319;SDS011;60269;52.502;16.732;2022-10-26T05:38:35;31.47;;;9.50;;
72319;SDS011;60269;52.502;16.732;2022-10-26T05:42:07;39.53;;;9.30;;
72319;SDS011;60269;52.502;16.732;2022-10-26T05:45:39;32.50;;;7.60;;
72319;SDS011;60269;52.502;16.732;2022-10-26T05:49:11;27.90;;;7.03;;
72319;SDS011;60269;52.502;16.732;2022-10-26T05:52:46;19.77;;;6.00;;
72319;SDS011;60269;52.502;16.732;2022-10-26T05:56:20;21.25;;;5.88;;
72319;SDS011;60269;52.502;16.732;2022-10-26T06:00:06;12.50;;;5.20;;
72319;SDS011;60269;52.502;16.732;2022-10-26T06:07:37;19.15;;;7.15;;
72319;SDS011;60269;52.502;16.732;2022-10-26T06:11:10;21.85;;;6.80;;
72319;SDS011;60269;52.502;16.732;2022-10-26T06:14:42;18.87;;;6.90;;
72319;SDS011;60269;52.502;16.732;2022-10-26T06:25:44;16.38;;;6.68;;
72319;SDS011;60269;52.502;16.732;2022-10-26T06:29:43;28.17;;;6.97;;
72319;SDS011;60269;52.502;16.732;2022-10-26T06:33:25;29.00;;;6.90;;
72319;SDS011;60269;52.502;16.732;2022-10-26T06:37:01;36.40;;;7.68;;
72319;SDS011;60269;52.502;16.732;2022-10-26T06:40:34;22.33;;;6.67;;
72319;SDS011;60269;52.502;16.732;2022-10-26T06:44:07;18.27;;;6.72;;
72319;SDS011;60269;52.502;16.732;2022-10-26T06:51:18;25.02;;;7.72;;
72319;SDS011;60269;52.502;16.732;2022-10-26T06:54:51;36.03;;;8.73;;
72319;SDS011;60269;52.502;16.732;2022-10-26T06:58:26;26.48;;;7.95;;
72319;SDS011;60269;52.502;16.732;2022-10-26T07:02:00;22.30;;;8.02;;
72319;SDS011;60269;52.502;16.732;2022-10-26T07:05:37;18.43;;;6.63;;
72319;SDS011;60269;52.502;16.732;2022-10-26T07:09:09;26.67;;;7.13;;
72319;SDS011;60269;52.502;16.732;2022-10-26T07:12:40;37.22;;;8.52;;
72319;SDS011;60269;52.502;16.732;2022-10-26T07:16:13;27.33;;;9.53;;
72319;SDS011;60269;52.502;16.732;2022-10-26T07:19:45;35.95;;;12.63;;
72319;SDS011;60269;52.502;16.732;2022-10-26T07:23:16;42.50;;;13.82;;
72319;SDS011;60269;52.502;16.732;2022-10-26T07:26:48;50.25;;;15.60;;
72319;SDS011;60269;52.502;16.732;2022-10-26T07:30:20;51.83;;;17.17;;
72319;SDS011;60269;52.502;16.732;2022-10-26T07:33:52;60.88;;;17.80;;
72319;SDS011;60269;52.502;16.732;2022-10-26T07:37:25;66.90;;;21.27;;
72319;SDS011;60269;52.502;16.732;2022-10-26T07:40:57;75.90;;;22.10;;
72319;SDS011;60269;52.502;16.732;2022-10-26T07:44:29;68.40;;;22.63;;
72319;SDS011;60269;52.502;16.732;2022-10-26T07:48:01;78.68;;;22.42;;
72319;SDS011;60269;52.502;16.732;2022-10-26T07:51:33;64.63;;;20.33;;
72319;SDS011;60269;52.502;16.732;2022-10-26T07:55:05;71.03;;;18.83;;
72319;SDS011;60269;52.502;16.732;2022-10-26T07:58:37;89.03;;;23.98;;
72319;SDS011;60269;52.502;16.732;2022-10-26T08:02:09;73.57;;;24.48;;
72319;SDS011;60269;52.502;16.732;2022-10-26T08:05:41;55.57;;;20.07;;
72319;SDS011;60269;52.502;16.732;2022-10-26T08:09:13;65.73;;;19.47;;
72319;SDS011;60269;52.502;16.732;2022-10-26T08:12:45;83.20;;;21.15;;
72319;SDS011;60269;52.502;16.732;2022-10-26T08:16:17;69.82;;;20.30;;
72319;SDS011;60269;52.502;16.732;2022-10-26T08:19:49;96.40;;;21.53;;
72319;SDS011;60269;52.502;16.732;2022-10-26T08:23:21;89.30;;;20.30;;
72319;SDS011;60269;52.502;16.732;2022-10-26T08:26:53;68.43;;;20.63;;
72319;SDS011;60269;52.502;16.732;2022-10-26T08:30:25;64.72;;;19.98;;
72319;SDS011;60269;52.502;16.732;2022-10-26T08:33:57;70.47;;;21.57;;
72319;SDS011;60269;52.502;16.732;2022-10-26T08:37:29;62.30;;;22.50;;
72319;SDS011;60269;52.502;16.732;2022-10-26T08:41:05;74.38;;;20.98;;
72319;SDS011;60269;52.502;16.732;2022-10-26T08:44:45;51.70;;;17.80;;
72319;SDS011;60269;52.502;16.732;2022-10-26T08:48:20;63.50;;;18.33;;
72319;SDS011;60269;52.502;16.732;2022-10-26T08:51:59;69.03;;;17.67;;
72319;SDS011;60269;52.502;16.732;2022-10-26T08:55:40;59.63;;;18.83;;
72319;SDS011;60269;52.502;16.732;2022-10-26T08:59:23;47.75;;;17.85;;
72319;SDS011;60269;52.502;16.732;2022-10-26T09:03:13;53.70;;;19.93;;
72319;SDS011;60269;52.502;16.732;2022-10-26T09:10:40;60.15;;;19.40;;
72319;SDS011;60269;52.502;16.732;2022-10-26T09:14:48;44.35;;;18.02;;
72319;SDS011;60269;52.502;16.732;2022-10-26T09:22:21;66.87;;;17.03;;
72319;SDS011;60269;52.502;16.732;2022-10-26T09:26:02;49.78;;;16.42;;
72319;SDS011;60269;52.502;16.732;2022-10-26T09:29:41;38.78;;;15.60;;
72319;SDS011;60269;52.502;16.732;2022-10-26T09:33:18;51.03;;;14.50;;
72319;SDS011;60269;52.502;16.732;2022-10-26T09:36:54;30.27;;;13.40;;
72319;SDS011;60269;52.502;16.732;2022-10-26T09:40:28;44.35;;;13.35;;
72319;SDS011;60269;52.502;16.732;2022-10-26T09:44:27;37.85;;;12.20;;
72319;SDS011;60269;52.502;16.732;2022-10-26T09:48:15;28.87;;;12.07;;
72319;SDS011;60269;52.502;16.732;2022-10-26T09:51:52;27.13;;;12.67;;
72319;SDS011;60269;52.502;16.732;2022-10-26T09:55:25;24.50;;;11.90;;
72319;SDS011;60269;52.502;16.732;2022-10-26T09:59:02;27.92;;;13.05;;
72319;SDS011;60269;52.502;16.732;2022-10-26T10:02:40;32.97;;;13.70;;
72319;SDS011;60269;52.502;16.732;2022-10-26T10:06:17;27.20;;;13.83;;
72319;SDS011;60269;52.502;16.732;2022-10-26T10:13:48;27.58;;;12.93;;
72319;SDS011;60269;52.502;16.732;2022-10-26T10:17:21;27.50;;;12.73;;
72319;SDS011;60269;52.502;16.732;2022-10-26T10:20:55;29.13;;;12.80;;
72319;SDS011;60269;52.502;16.732;2022-10-26T10:24:32;30.77;;;13.00;;
72319;SDS011;60269;52.502;16.732;2022-10-26T10:28:21;30.48;;;14.48;;
72319;SDS011;60269;52.502;16.732;2022-10-26T10:31:56;32.23;;;15.43;;
72319;SDS011;60269;52.502;16.732;2022-10-26T10:35:29;28.03;;;14.27;;
72319;SDS011;60269;52.502;16.732;2022-10-26T10:39:02;32.35;;;15.48;;
72319;SDS011;60269;52.502;16.732;2022-10-26T10:43:10;23.73;;;13.07;;
72319;SDS011;60269;52.502;16.732;2022-10-26T10:46:45;29.67;;;15.47;;
72319;SDS011;60269;52.502;16.732;2022-10-26T10:50:17;25.27;;;13.80;;
72319;SDS011;60269;52.502;16.732;2022-10-26T10:53:52;29.20;;;13.88;;
72319;SDS011;60269;52.502;16.732;2022-10-26T10:57:29;30.50;;;15.02;;
72319;SDS011;60269;52.502;16.732;2022-10-26T11:01:11;30.23;;;15.03;;
72319;SDS011;60269;52.502;16.732;2022-10-26T11:08:41;25.75;;;12.35;;
72319;SDS011;60269;52.502;16.732;2022-10-26T11:12:32;22.00;;;12.00;;
72319;SDS011;60269;52.502;16.732;2022-10-26T11:16:12;25.73;;;12.13;;
72319;SDS011;60269;52.502;16.732;2022-10-26T11:19:53;18.70;;;10.03;;
72319;SDS011;60269;52.502;16.732;2022-10-26T11:23:36;24.50;;;10.45;;
72319;SDS011;60269;52.502;16.732;2022-10-26T11:30:49;21.10;;;10.50;;
72319;SDS011;60269;52.502;16.732;2022-10-26T11:34:38;18.87;;;8.70;;
72319;SDS011;60269;52.502;16.732;2022-10-26T11:42:30;15.80;;;7.25;;
72319;SDS011;60269;52.502;16.732;2022-10-26T11:46:09;12.93;;;6.30;;
72319;SDS011;60269;52.502;16.732;2022-10-26T11:49:52;12.83;;;5.70;;
72319;SDS011;60269;52.502;16.732;2022-10-26T11:53:35;12.25;;;6.03;;
72319;SDS011;60269;52.502;16.732;2022-10-26T11:57:10;13.65;;;6.28;;
72319;SDS011;60269;52.502;16.732;2022-10-26T12:00:46;13.23;;;6.72;;
72319;SDS011;60269;52.502;16.732;2022-10-26T12:04:22;17.53;;;7.03;;
72319;SDS011;60269;52.502;16.732;2022-10-26T12:07:59;14.75;;;6.55;;
72319;SDS011;60269;52.502;16.732;2022-10-26T12:15:43;13.93;;;6.07;;
72319;SDS011;60269;52.502;16.732;2022-10-26T12:19:51;12.07;;;5.70;;
72319;SDS011;60269;52.502;16.732;2022-10-26T12:23:34;11.48;;;4.88;;
72319;SDS011;60269;52.502;16.732;2022-10-26T12:27:28;11.63;;;6.38;;
72319;SDS011;60269;52.502;16.732;2022-10-26T12:31:39;12.50;;;5.33;;
72319;SDS011;60269;52.502;16.732;2022-10-26T12:35:27;11.93;;;5.23;;
72319;SDS011;60269;52.502;16.732;2022-10-26T12:39:03;11.75;;;5.13;;
72319;SDS011;60269;52.502;16.732;2022-10-26T12:42:55;13.45;;;5.78;;
72319;SDS011;60269;52.502;16.732;2022-10-26T12:50:00;10.63;;;4.67;;
72319;SDS011;60269;52.502;16.732;2022-10-26T12:53:32;13.15;;;4.90;;
72319;SDS011;60269;52.502;16.732;2022-10-26T12:57:09;10.60;;;5.07;;
72319;SDS011;60269;52.502;16.732;2022-10-26T13:00:49;9.63;;;4.78;;
72319;SDS011;60269;52.502;16.732;2022-10-26T13:08:39;10.60;;;4.88;;
72319;SDS011;60269;52.502;16.732;2022-10-26T13:12:14;11.90;;;4.47;;
72319;SDS011;60269;52.502;16.732;2022-10-26T13:15:55;11.73;;;4.53;;
72319;SDS011;60269;52.502;16.732;2022-10-26T13:19:40;10.43;;;4.73;;
72319;SDS011;60269;52.502;16.732;2022-10-26T13:23:15;10.70;;;4.00;;
72319;SDS011;60269;52.502;16.732;2022-10-26T13:30:43;10.60;;;4.28;;
72319;SDS011;60269;52.502;16.732;2022-10-26T13:34:17;11.03;;;3.93;;
72319;SDS011;60269;52.502;16.732;2022-10-26T13:37:52;7.88;;;3.13;;
72319;SDS011;60269;52.502;16.732;2022-10-26T13:41:29;9.00;;;4.13;;
72319;SDS011;60269;52.502;16.732;2022-10-26T13:45:05;10.20;;;3.40;;
72319;SDS011;60269;52.502;16.732;2022-10-26T13:48:42;9.67;;;3.97;;
72319;SDS011;60269;52.502;16.732;2022-10-26T13:52:27;8.53;;;3.30;;
72319;SDS011;60269;52.502;16.732;2022-10-26T14:00:33;10.05;;;3.65;;
72319;SDS011;60269;52.502;16.732;2022-10-26T14:04:15;11.35;;;2.83;;
72319;SDS011;60269;52.502;16.732;2022-10-26T14:07:59;8.77;;;2.93;;
72319;SDS011;60269;52.502;16.732;2022-10-26T14:11:35;7.07;;;3.33;;
72319;SDS011;60269;52.502;16.732;2022-10-26T14:15:21;10.57;;;3.50;;
72319;SDS011;60269;52.502;16.732;2022-10-26T14:18:55;8.57;;;2.90;;
72319;SDS011;60269;52.502;16.732;2022-10-26T14:22:28;7.47;;;2.97;;
72319;SDS011;60269;52.502;16.732;2022-10-26T14:26:00;7.13;;;2.10;;
72319;SDS011;60269;52.502;16.732;2022-10-26T14:29:36;6.80;;;2.38;;
72319;SDS011;60269;52.502;16.732;2022-10-26T14:33:18;8.60;;;2.20;;
72319;SDS011;60269;52.502;16.732;2022-10-26T14:36:52;9.52;;;2.10;;
72319;SDS011;60269;52.502;16.732;2022-10-26T14:40:27;14.30;;;2.27;;
72319;SDS011;60269;52.502;16.732;2022-10-26T14:44:03;6.68;;;2.05;;
72319;SDS011;60269;52.502;16.732;2022-10-26T14:47:34;8.30;;;2.70;;
72319;SDS011;60269;52.502;16.732;2022-10-26T14:51:14;9.50;;;2.10;;
72319;SDS011;60269;52.502;16.732;2022-10-26T14:54:56;6.57;;;2.10;;
72319;SDS011;60269;52.502;16.732;2022-10-26T14:58:29;8.30;;;2.37;;
72319;SDS011;60269;52.502;16.732;2022-10-26T15:02:21;6.10;;;1.90;;
72319;SDS011;60269;52.502;16.732;2022-10-26T15:05:55;10.48;;;2.33;;
72319;SDS011;60269;52.502;16.732;2022-10-26T15:09:28;5.78;;;2.28;;
72319;SDS011;60269;52.502;16.732;2022-10-26T15:16:56;11.30;;;3.60;;
72319;SDS011;60269;52.502;16.732;2022-10-26T15:20:29;10.60;;;3.55;;
72319;SDS011;60269;52.502;16.732;2022-10-26T15:24:01;10.57;;;3.55;;
72319;SDS011;60269;52.502;16.732;2022-10-26T15:27:43;12.63;;;4.17;;
72319;SDS011;60269;52.502;16.732;2022-10-26T15:34:47;13.88;;;4.70;;
72319;SDS011;60269;52.502;16.732;2022-10-26T15:38:20;10.38;;;4.05;;
72319;SDS011;60269;52.502;16.732;2022-10-26T15:41:52;11.97;;;5.37;;
72319;SDS011;60269;52.502;16.732;2022-10-26T15:45:25;10.85;;;3.65;;
72319;SDS011;60269;52.502;16.732;2022-10-26T15:49:02;10.65;;;4.70;;
72319;SDS011;60269;52.502;16.732;2022-10-26T15:52:35;12.07;;;4.20;;
72319;SDS011;60269;52.502;16.732;2022-10-26T15:56:12;13.80;;;5.03;;
72319;SDS011;60269;52.502;16.732;2022-10-26T15:59:46;20.83;;;7.57;;
72319;SDS011;60269;52.502;16.732;2022-10-26T16:03:22;17.08;;;5.45;;
72319;SDS011;60269;52.502;16.732;2022-10-26T16:06:55;10.63;;;4.67;;
72319;SDS011;60269;52.502;16.732;2022-10-26T16:10:31;14.10;;;4.77;;
72319;SDS011;60269;52.502;16.732;2022-10-26T16:14:04;11.80;;;4.70;;
72319;SDS011;60269;52.502;16.732;2022-10-26T16:17:36;18.33;;;5.10;;
72319;SDS011;60269;52.502;16.732;2022-10-26T16:21:13;12.67;;;5.83;;
72319;SDS011;60269;52.502;16.732;2022-10-26T16:24:48;15.03;;;5.40;;
72319;SDS011;60269;52.502;16.732;2022-10-26T16:28:19;13.75;;;5.80;;
72319;SDS011;60269;52.502;16.732;2022-10-26T16:31:51;12.75;;;5.10;;
72319;SDS011;60269;52.502;16.732;2022-10-26T16:35:23;12.87;;;4.83;;
72319;SDS011;60269;52.502;16.732;2022-10-26T16:38:55;15.77;;;6.30;;
72319;SDS011;60269;52.502;16.732;2022-10-26T16:42:29;15.48;;;6.03;;
72319;SDS011;60269;52.502;16.732;2022-10-26T16:46:09;17.08;;;6.65;;
72319;SDS011;60269;52.502;16.732;2022-10-26T16:49:42;14.80;;;6.47;;
72319;SDS011;60269;52.502;16.732;2022-10-26T16:53:16;17.37;;;6.37;;
72319;SDS011;60269;52.502;16.732;2022-10-26T16:56:47;18.40;;;7.70;;
72319;SDS011;60269;52.502;16.732;2022-10-26T17:00:20;20.73;;;9.60;;
72319;SDS011;60269;52.502;16.732;2022-10-26T17:03:52;21.80;;;9.57;;
72319;SDS011;60269;52.502;16.732;2022-10-26T17:07:25;24.43;;;9.50;;
72319;SDS011;60269;52.502;16.732;2022-10-26T17:14:34;22.60;;;11.00;;
72319;SDS011;60269;52.502;16.732;2022-10-26T17:18:06;25.10;;;11.73;;
72319;SDS011;60269;52.502;16.732;2022-10-26T17:21:41;27.53;;;13.30;;
72319;SDS011;60269;52.502;16.732;2022-10-26T17:25:15;31.20;;;15.02;;
72319;SDS011;60269;52.502;16.732;2022-10-26T17:28:50;29.63;;;14.68;;
72319;SDS011;60269;52.502;16.732;2022-10-26T17:32:23;31.77;;;15.70;;
72319;SDS011;60269;52.502;16.732;2022-10-26T17:35:56;34.83;;;15.45;;
72319;SDS011;60269;52.502;16.732;2022-10-26T17:39:28;40.75;;;17.23;;
72319;SDS011;60269;52.502;16.732;2022-10-26T17:43:01;32.63;;;15.93;;
72319;SDS011;60269;52.502;16.732;2022-10-26T17:46:33;34.10;;;16.17;;
72319;SDS011;60269;52.502;16.732;2022-10-26T17:50:06;36.53;;;17.50;;
72319;SDS011;60269;52.502;16.732;2022-10-26T17:53:38;39.50;;;17.20;;
72319;SDS011;60269;52.502;16.732;2022-10-26T17:57:11;40.33;;;17.43;;
72319;SDS011;60269;52.502;16.732;2022-10-26T18:00:43;34.30;;;17.27;;
72319;SDS011;60269;52.502;16.732;2022-10-26T18:04:21;37.03;;;17.88;;
72319;SDS011;60269;52.502;16.732;2022-10-26T18:07:54;39.47;;;17.08;;
72319;SDS011;60269;52.502;16.732;2022-10-26T18:11:26;42.30;;;18.40;;
72319;SDS011;60269;52.502;16.732;2022-10-26T18:14:59;33.50;;;16.80;;
72319;SDS011;60269;52.502;16.732;2022-10-26T18:18:32;43.60;;;18.40;;
72319;SDS011;60269;52.502;16.732;2022-10-26T18:22:04;41.05;;;19.30;;
72319;SDS011;60269;52.502;16.732;2022-10-26T18:25:37;44.27;;;20.53;;
72319;SDS011;60269;52.502;16.732;2022-10-26T18:29:10;50.17;;;21.65;;
72319;SDS011;60269;52.502;16.732;2022-10-26T18:32:43;44.30;;;20.40;;
72319;SDS011;60269;52.502;16.732;2022-10-26T18:36:16;45.83;;;20.40;;
72319;SDS011;60269;52.502;16.732;2022-10-26T18:39:49;42.70;;;19.97;;
72319;SDS011;60269;52.502;16.732;2022-10-26T18:43:21;45.72;;;18.48;;
72319;SDS011;60269;52.502;16.732;2022-10-26T18:46:54;35.08;;;18.92;;
72319;SDS011;60269;52.502;16.732;2022-10-26T18:50:26;39.87;;;19.10;;
72319;SDS011;60269;52.502;16.732;2022-10-26T18:53:58;45.45;;;19.60;;
72319;SDS011;60269;52.502;16.732;2022-10-26T18:57:31;40.42;;;21.33;;
72319;SDS011;60269;52.502;16.732;2022-10-26T19:04:44;46.83;;;20.87;;
72319;SDS011;60269;52.502;16.732;2022-10-26T19:08:16;44.83;;;20.27;;
72319;SDS011;60269;52.502;16.732;2022-10-26T19:11:48;42.30;;;20.23;;
72319;SDS011;60269;52.502;16.732;2022-10-26T19:15:20;41.33;;;20.77;;
72319;SDS011;60269;52.502;16.732;2022-10-26T19:18:55;40.17;;;18.73;;
72319;SDS011;60269;52.502;16.732;2022-10-26T19:22:28;37.63;;;18.25;;
72319;SDS011;60269;52.502;16.732;2022-10-26T19:26:00;39.58;;;18.58;;
72319;SDS011;60269;52.502;16.732;2022-10-26T19:29:32;43.47;;;19.17;;
72319;SDS011;60269;52.502;16.732;2022-10-26T19:33:04;43.58;;;19.67;;
72319;SDS011;60269;52.502;16.732;2022-10-26T19:36:36;45.33;;;21.25;;
72319;SDS011;60269;52.502;16.732;2022-10-26T19:40:08;39.83;;;18.50;;
72319;SDS011;60269;52.502;16.732;2022-10-26T19:43:41;42.57;;;18.87;;
72319;SDS011;60269;52.502;16.732;2022-10-26T19:47:13;44.53;;;18.73;;
72319;SDS011;60269;52.502;16.732;2022-10-26T19:50:46;43.10;;;17.63;;
72319;SDS011;60269;52.502;16.732;2022-10-26T19:54:19;35.07;;;17.53;;
72319;SDS011;60269;52.502;16.732;2022-10-26T19:57:51;38.92;;;16.83;;
72319;SDS011;60269;52.502;16.732;2022-10-26T20:01:22;40.65;;;17.33;;
72319;SDS011;60269;52.502;16.732;2022-10-26T20:04:54;37.75;;;17.48;;
72319;SDS011;60269;52.502;16.732;2022-10-26T20:08:26;34.60;;;16.43;;
72319;SDS011;60269;52.502;16.732;2022-10-26T20:11:59;38.97;;;16.83;;
72319;SDS011;60269;52.502;16.732;2022-10-26T20:15:31;34.92;;;15.77;;
72319;SDS011;60269;52.502;16.732;2022-10-26T20:19:08;33.13;;;16.47;;
72319;SDS011;60269;52.502;16.732;2022-10-26T20:22:49;43.13;;;16.50;;
72319;SDS011;60269;52.502;16.732;2022-10-26T20:26:21;34.97;;;16.88;;
72319;SDS011;60269;52.502;16.732;2022-10-26T20:29:57;42.47;;;17.42;;
72319;SDS011;60269;52.502;16.732;2022-10-26T20:33:30;41.23;;;17.83;;
72319;SDS011;60269;52.502;16.732;2022-10-26T20:37:01;44.23;;;18.10;;
72319;SDS011;60269;52.502;16.732;2022-10-26T20:40:33;43.92;;;19.30;;
72319;SDS011;60269;52.502;16.732;2022-10-26T20:44:08;40.13;;;17.63;;
72319;SDS011;60269;52.502;16.732;2022-10-26T20:47:46;42.07;;;19.23;;
72319;SDS011;60269;52.502;16.732;2022-10-26T20:56:14;43.65;;;17.98;;
72319;SDS011;60269;52.502;16.732;2022-10-26T20:59:58;40.65;;;18.75;;
72319;SDS011;60269;52.502;16.732;2022-10-26T21:03:34;44.20;;;19.57;;
72319;SDS011;60269;52.502;16.732;2022-10-26T21:07:06;43.13;;;19.43;;
72319;SDS011;60269;52.502;16.732;2022-10-26T21:10:38;41.40;;;18.48;;
72319;SDS011;60269;52.502;16.732;2022-10-26T21:14:10;45.05;;;19.08;;
72319;SDS011;60269;52.502;16.732;2022-10-26T21:17:42;45.10;;;20.13;;
72319;SDS011;60269;52.502;16.732;2022-10-26T21:21:14;43.97;;;18.47;;
72319;SDS011;60269;52.502;16.732;2022-10-26T21:24:46;43.97;;;18.88;;
72319;SDS011;60269;52.502;16.732;2022-10-26T21:28:18;37.88;;;18.00;;
72319;SDS011;60269;52.502;16.732;2022-10-26T21:31:50;46.83;;;17.90;;
72319;SDS011;60269;52.502;16.732;2022-10-26T21:35:22;44.85;;;18.50;;
72319;SDS011;60269;52.502;16.732;2022-10-26T21:38:53;43.42;;;20.15;;
72319;SDS011;60269;52.502;16.732;2022-10-26T21:42:25;44.35;;;20.65;;
72319;SDS011;60269;52.502;16.732;2022-10-26T21:45:57;45.07;;;19.50;;
72319;SDS011;60269;52.502;16.732;2022-10-26T21:49:34;45.97;;;19.35;;
72319;SDS011;60269;52.502;16.732;2022-10-26T21:53:07;47.92;;;20.63;;
72319;SDS011;60269;52.502;16.732;2022-10-26T21:56:39;48.53;;;20.47;;
72319;SDS011;60269;52.502;16.732;2022-10-26T22:00:11;42.27;;;20.27;;
72319;SDS011;60269;52.502;16.732;2022-10-26T22:03:43;47.50;;;20.17;;
72319;SDS011;60269;52.502;16.732;2022-10-26T22:07:16;45.17;;;19.83;;
72319;SDS011;60269;52.502;16.732;2022-10-26T22:10:50;42.93;;;20.53;;
72319;SDS011;60269;52.502;16.732;2022-10-26T22:14:22;42.95;;;20.67;;
72319;SDS011;60269;52.502;16.732;2022-10-26T22:17:53;46.92;;;20.38;;
72319;SDS011;60269;52.502;16.732;2022-10-26T22:21:26;44.77;;;20.67;;
72319;SDS011;60269;52.502;16.732;2022-10-26T22:24:58;44.95;;;20.38;;
72319;SDS011;60269;52.502;16.732;2022-10-26T22:28:31;46.08;;;21.15;;